createdAt,value
2022-11-30T00:00:57.673Z,10.20
2022-11-30T00:03:26.219Z,10.07
2022-11-30T00:05:54.210Z,9.87
2022-11-30T00:08:22.131Z,9.70
2022-11-30T00:10:51.491Z,10.00
2022-11-30T00:13:19.978Z,9.13
2022-11-30T00:15:47.938Z,9.87
2022-11-30T00:18:17.794Z,9.43
2022-11-30T00:20:46.250Z,10.43
2022-11-30T00:23:14.145Z,10.03
2022-11-30T00:25:42.538Z,9.33
2022-11-30T00:28:12.035Z,9.50
2022-11-30T00:30:40.552Z,9.53
2022-11-30T00:33:08.636Z,10.50
2022-11-30T00:35:36.670Z,9.07
2022-11-30T00:38:04.657Z,9.73
2022-11-30T00:40:32.818Z,9.80
2022-11-30T00:43:00.624Z,9.20
2022-11-30T00:45:30.308Z,10.03
2022-11-30T00:47:58.358Z,9.37
2022-11-30T00:50:26.765Z,9.63
2022-11-30T00:52:54.716Z,9.00
2022-11-30T00:55:22.693Z,9.50
2022-11-30T00:57:50.688Z,9.80
2022-11-30T01:00:19.179Z,10.07
2022-11-30T01:02:49.028Z,8.67
2022-11-30T01:05:17.026Z,9.00
2022-11-30T01:07:45.502Z,9.13
2022-11-30T01:10:13.553Z,10.00
2022-11-30T01:12:41.511Z,9.67
2022-11-30T01:15:10.424Z,8.97
2022-11-30T01:17:38.377Z,9.93
2022-11-30T01:20:09.163Z,9.00
2022-11-30T01:22:37.006Z,8.63
2022-11-30T01:25:05.356Z,9.23
2022-11-30T01:27:33.637Z,9.33
2022-11-30T01:30:01.667Z,9.80
2022-11-30T01:32:29.588Z,8.93
2022-11-30T01:34:57.870Z,8.83
2022-11-30T01:37:27.302Z,9.53
2022-11-30T01:39:55.688Z,8.70
2022-11-30T01:42:23.664Z,9.33
2022-11-30T01:44:54.391Z,9.30
2022-11-30T01:47:26.628Z,9.33
2022-11-30T01:49:56.945Z,9.47
2022-11-30T01:52:27.562Z,8.90
2022-11-30T01:54:58.023Z,9.10
2022-11-30T01:57:27.515Z,9.13
2022-11-30T01:59:56.285Z,9.50
2022-11-30T02:02:42.715Z,9.90
2022-11-30T02:05:11.169Z,9.67
2022-11-30T02:07:40.746Z,8.83
2022-11-30T02:10:14.448Z,8.77
2022-11-30T02:12:49.641Z,10.23
2022-11-30T02:15:21.068Z,8.60
2022-11-30T02:17:53.268Z,9.47
2022-11-30T02:20:35.946Z,9.30
2022-11-30T02:23:24.303Z,8.60
2022-11-30T02:25:58.329Z,8.93
2022-11-30T02:29:03.283Z,9.87
2022-11-30T02:31:32.962Z,10.03
2022-11-30T02:34:00.905Z,9.37
2022-11-30T02:36:28.819Z,9.60
2022-11-30T02:38:56.967Z,9.07
2022-11-30T02:41:24.860Z,9.60
2022-11-30T02:43:53.310Z,8.50
2022-11-30T02:46:25.917Z,8.80
2022-11-30T02:48:59.739Z,8.73
2022-11-30T02:51:27.682Z,8.43
2022-11-30T02:53:56.124Z,9.00
2022-11-30T02:56:25.220Z,8.73
2022-11-30T02:58:53.654Z,8.83
2022-11-30T03:01:23.091Z,9.73
2022-11-30T03:07:38.197Z,8.90
2022-11-30T03:10:07.245Z,9.13
2022-11-30T03:12:35.319Z,9.27
2022-11-30T03:15:03.447Z,9.30
2022-11-30T03:17:32.744Z,8.43
2022-11-30T03:20:00.975Z,9.83
2022-11-30T03:22:28.703Z,9.97
2022-11-30T03:24:56.586Z,8.73
2022-11-30T03:27:24.240Z,8.70
2022-11-30T03:29:52.204Z,9.20
2022-11-30T03:32:20.148Z,9.40
2022-11-30T03:34:49.619Z,9.20
2022-11-30T03:37:17.413Z,9.17
2022-11-30T03:39:45.201Z,9.40
2022-11-30T03:42:12.935Z,9.50
2022-11-30T03:44:40.597Z,9.23
2022-11-30T03:47:08.635Z,8.50
2022-11-30T03:49:36.307Z,9.60
2022-11-30T03:52:06.062Z,8.03
2022-11-30T03:54:34.073Z,9.73
2022-11-30T03:57:02.454Z,9.20
2022-11-30T03:59:30.332Z,8.97
2022-11-30T04:01:58.730Z,9.13
2022-11-30T04:04:26.658Z,8.73
2022-11-30T04:06:55.059Z,8.50
2022-11-30T04:09:24.286Z,9.47
2022-11-30T04:11:52.154Z,8.90
2022-11-30T04:14:20.070Z,8.90
2022-11-30T04:16:48.399Z,9.60
2022-11-30T04:19:16.471Z,8.90
2022-11-30T04:21:44.309Z,8.90
2022-11-30T04:24:12.120Z,9.13
2022-11-30T04:26:41.875Z,9.90
2022-11-30T04:29:09.928Z,8.73
2022-11-30T04:31:37.967Z,9.07
2022-11-30T04:34:05.854Z,8.73
2022-11-30T04:36:33.912Z,9.07
2022-11-30T04:39:02.304Z,10.00
2022-11-30T04:41:30.296Z,8.10
2022-11-30T04:44:00.124Z,8.73
2022-11-30T04:46:28.069Z,8.70
2022-11-30T04:48:56.075Z,9.37
2022-11-30T04:51:23.978Z,9.10
2022-11-30T04:53:52.353Z,8.40
2022-11-30T04:56:20.281Z,9.40
2022-11-30T04:58:48.300Z,8.73
2022-11-30T05:01:17.801Z,9.20
2022-11-30T05:03:45.836Z,8.73
2022-11-30T05:06:13.781Z,9.03
2022-11-30T05:08:42.174Z,9.70
2022-11-30T05:11:10.093Z,8.80
2022-11-30T05:13:38.229Z,9.10
2022-11-30T05:16:06.647Z,9.10
2022-11-30T05:18:36.789Z,9.07
2022-11-30T05:21:04.793Z,9.03
2022-11-30T05:23:32.835Z,8.40
2022-11-30T05:26:03.296Z,8.97
2022-11-30T05:28:31.339Z,8.77
2022-11-30T05:31:04.154Z,9.13
2022-11-30T05:33:32.207Z,8.20
2022-11-30T05:36:05.827Z,9.43
2022-11-30T05:38:36.881Z,8.80
2022-11-30T05:41:05.294Z,9.10
2022-11-30T05:43:33.045Z,8.33
2022-11-30T05:46:02.249Z,9.10
2022-11-30T05:48:30.221Z,8.77
2022-11-30T05:51:07.621Z,8.90
2022-11-30T05:53:35.788Z,9.43
2022-11-30T05:56:04.765Z,9.00
2022-11-30T05:58:33.256Z,8.53
2022-11-30T06:01:01.228Z,8.60
2022-11-30T06:03:29.904Z,8.47
2022-11-30T06:05:58.344Z,9.20
2022-11-30T06:08:27.909Z,10.07
2022-11-30T06:10:56.389Z,9.30
2022-11-30T06:13:28.743Z,8.80
2022-11-30T06:16:00.068Z,10.17
2022-11-30T06:18:28.151Z,9.80
2022-11-30T06:20:56.202Z,9.47
2022-11-30T06:23:24.040Z,9.47
2022-11-30T06:25:53.156Z,9.50
2022-11-30T06:28:20.875Z,9.40
2022-11-30T06:30:49.927Z,10.00
2022-11-30T06:33:17.896Z,9.60
2022-11-30T06:35:47.202Z,9.63
2022-11-30T06:38:15.491Z,8.73
2022-11-30T06:40:43.240Z,9.47
2022-11-30T06:43:12.825Z,8.70
2022-11-30T06:45:40.583Z,8.80
2022-11-30T06:48:08.800Z,8.37
2022-11-30T06:50:36.506Z,9.30
2022-11-30T06:53:04.708Z,9.73
2022-11-30T06:55:32.966Z,9.53
2022-11-30T06:58:06.891Z,9.43
2022-11-30T07:00:36.307Z,9.47
2022-11-30T07:03:05.115Z,8.93
2022-11-30T07:05:33.366Z,9.03
2022-11-30T07:08:01.589Z,9.03
2022-11-30T07:10:29.633Z,9.70
2022-11-30T07:12:58.060Z,9.37
2022-11-30T07:15:25.789Z,9.10
2022-11-30T07:17:55.098Z,9.83
2022-11-30T07:20:23.104Z,10.30
2022-11-30T07:22:51.158Z,9.30
2022-11-30T07:25:36.520Z,10.40
2022-11-30T07:28:04.876Z,8.90
2022-11-30T07:30:32.739Z,9.20
2022-11-30T07:33:02.451Z,8.90
2022-11-30T07:35:30.430Z,9.43
2022-11-30T07:37:58.338Z,9.43
2022-11-30T07:40:26.839Z,9.57
2022-11-30T07:42:56.385Z,10.27
2022-11-30T07:45:24.623Z,9.50
2022-11-30T07:47:52.436Z,10.20
2022-11-30T07:50:22.096Z,9.43
2022-11-30T07:52:50.048Z,10.37
2022-11-30T07:55:20.608Z,10.40
2022-11-30T07:57:48.426Z,9.83
2022-11-30T08:00:16.940Z,11.17
2022-11-30T08:02:44.732Z,10.63
2022-11-30T08:05:12.981Z,11.33
2022-11-30T08:07:42.293Z,9.93
2022-11-30T08:10:11.822Z,11.70
2022-11-30T08:12:39.496Z,10.20
2022-11-30T08:15:19.718Z,10.27
2022-11-30T08:17:54.451Z,9.73
2022-11-30T08:20:23.890Z,10.50
2022-11-30T08:22:53.305Z,10.90
2022-11-30T08:25:21.835Z,10.87
2022-11-30T08:27:49.925Z,10.30
2022-11-30T08:30:18.804Z,10.33
2022-11-30T08:32:46.839Z,10.70
2022-11-30T08:35:15.057Z,11.57
2022-11-30T08:37:43.086Z,10.07
2022-11-30T08:40:13.330Z,10.40
2022-11-30T08:42:41.355Z,10.17
2022-11-30T08:45:09.914Z,11.20
2022-11-30T08:47:38.199Z,11.07
2022-11-30T08:50:06.859Z,11.57
2022-11-30T08:52:35.200Z,10.77
2022-11-30T08:55:03.169Z,11.23
2022-11-30T08:57:33.217Z,10.40
2022-11-30T09:00:01.130Z,11.27
2022-11-30T09:02:29.695Z,11.40
2022-11-30T09:04:57.684Z,11.40
2022-11-30T09:07:25.628Z,10.77
2022-11-30T09:09:53.298Z,10.73
2022-11-30T09:12:21.553Z,11.77
2022-11-30T09:14:57.429Z,10.83
2022-11-30T09:17:26.391Z,11.07
2022-11-30T09:19:54.706Z,10.77
2022-11-30T09:22:22.527Z,11.97
2022-11-30T09:24:50.893Z,11.30
2022-11-30T09:27:18.981Z,12.23
2022-11-30T09:29:47.451Z,10.53
2022-11-30T09:32:16.809Z,10.90
2022-11-30T09:34:45.310Z,11.83
2022-11-30T09:37:13.632Z,11.53
2022-11-30T09:39:41.687Z,11.03
2022-11-30T09:42:25.521Z,11.70
2022-11-30T09:44:58.193Z,11.40
2022-11-30T09:47:40.376Z,11.60
2022-11-30T09:50:13.823Z,11.37
2022-11-30T09:52:43.099Z,11.23
2022-11-30T09:55:12.369Z,11.77
2022-11-30T09:57:44.964Z,11.40
2022-11-30T10:00:15.571Z,11.60
2022-11-30T10:02:45.156Z,12.47
2022-11-30T10:05:14.720Z,11.37
2022-11-30T10:07:50.095Z,12.13
2022-11-30T10:10:32.126Z,10.97
2022-11-30T10:13:04.438Z,11.87
2022-11-30T10:15:37.151Z,11.70
2022-11-30T10:18:10.910Z,10.80
2022-11-30T10:20:53.643Z,12.00
2022-11-30T10:23:35.903Z,11.10
2022-11-30T10:26:06.026Z,10.90
2022-11-30T10:28:46.980Z,11.63
2022-11-30T10:31:16.597Z,11.60
2022-11-30T10:33:47.419Z,12.43
2022-11-30T10:36:25.767Z,12.00
2022-11-30T10:38:55.199Z,12.40
2022-11-30T10:41:23.758Z,11.50
2022-11-30T10:43:54.498Z,12.37
2022-11-30T10:46:23.381Z,11.37
2022-11-30T10:48:55.221Z,11.40
2022-11-30T10:51:23.047Z,11.70
2022-11-30T10:53:51.197Z,12.60
2022-11-30T10:56:19.033Z,12.80
2022-11-30T10:58:54.939Z,12.70
2022-11-30T11:01:34.043Z,12.87
2022-11-30T11:04:13.931Z,12.37
2022-11-30T11:06:44.442Z,12.43
2022-11-30T11:09:25.511Z,13.20
2022-11-30T11:11:54.830Z,11.97
2022-11-30T11:14:24.324Z,12.33
2022-11-30T11:16:54.337Z,12.80
2022-11-30T11:19:33.217Z,13.27
2022-11-30T11:22:02.131Z,12.63
2022-11-30T11:24:30.424Z,13.23
2022-11-30T11:26:58.519Z,11.37
2022-11-30T11:29:32.618Z,12.20
2022-11-30T11:32:08.341Z,11.93
2022-11-30T11:34:38.987Z,12.60
2022-11-30T11:37:08.084Z,11.63
2022-11-30T11:39:36.055Z,12.10
2022-11-30T11:42:04.122Z,13.37
2022-11-30T11:44:32.055Z,13.43
2022-11-30T11:47:01.001Z,12.30
2022-11-30T11:49:29.899Z,12.50
2022-11-30T11:52:03.383Z,12.20
2022-11-30T11:54:33.147Z,13.50
2022-11-30T11:57:01.632Z,13.13
2022-11-30T11:59:36.268Z,13.13
2022-11-30T12:02:06.951Z,13.10
2022-11-30T12:04:41.305Z,13.33
2022-11-30T12:07:22.880Z,13.70
2022-11-30T12:09:57.923Z,14.00
2022-11-30T12:12:26.371Z,15.27
2022-11-30T12:14:54.360Z,13.47
2022-11-30T12:17:35.621Z,14.10
2022-11-30T12:20:08.303Z,13.53
2022-11-30T12:22:48.087Z,13.50
2022-11-30T12:25:22.107Z,14.60
2022-11-30T12:27:54.449Z,14.90
2022-11-30T12:30:23.827Z,14.03
2022-11-30T12:33:12.617Z,15.03
2022-11-30T12:35:58.392Z,14.77
2022-11-30T12:38:34.997Z,16.13
2022-11-30T12:41:07.450Z,14.47
2022-11-30T12:43:41.834Z,13.63
2022-11-30T12:46:13.440Z,15.03
2022-11-30T12:48:43.703Z,15.00
2022-11-30T12:51:16.270Z,14.90
2022-11-30T12:53:48.054Z,14.80
2022-11-30T12:56:22.431Z,15.17
2022-11-30T12:58:53.150Z,15.00
2022-11-30T13:01:33.161Z,15.77
2022-11-30T13:04:04.451Z,13.73
2022-11-30T13:06:34.344Z,14.60
2022-11-30T13:09:06.562Z,14.93
2022-11-30T13:11:37.553Z,14.53
2022-11-30T13:14:07.853Z,14.60
2022-11-30T13:16:35.933Z,14.03
2022-11-30T13:19:09.742Z,15.80
2022-11-30T13:21:40.729Z,15.93
2022-11-30T13:24:14.236Z,14.40
2022-11-30T13:26:43.955Z,15.20
2022-11-30T13:29:36.412Z,15.00
2022-11-30T13:32:17.696Z,15.10
2022-11-30T13:34:56.283Z,15.23
2022-11-30T13:37:27.314Z,15.70
2022-11-30T13:39:57.457Z,16.03
2022-11-30T13:42:34.311Z,14.73
2022-11-30T13:45:19.497Z,14.23
2022-11-30T13:47:49.616Z,15.50
2022-11-30T13:50:21.571Z,15.27
2022-11-30T13:53:20.096Z,15.83
2022-11-30T13:55:58.380Z,15.03
2022-11-30T13:58:26.699Z,15.63
2022-11-30T14:01:22.824Z,15.53
2022-11-30T14:04:36.249Z,14.67
2022-11-30T14:07:09.897Z,15.40
2022-11-30T14:10:22.653Z,14.53
2022-11-30T14:13:00.583Z,13.70
2022-11-30T14:15:53.880Z,15.47
2022-11-30T14:18:30.182Z,14.67
2022-11-30T14:20:59.325Z,14.87
2022-11-30T14:23:29.430Z,15.10
2022-11-30T14:25:58.765Z,14.70
2022-11-30T14:28:31.300Z,15.30
2022-11-30T14:30:59.488Z,16.40
2022-11-30T14:33:32.648Z,15.23
2022-11-30T14:36:00.486Z,15.57
2022-11-30T14:38:30.084Z,15.20
2022-11-30T14:40:58.320Z,15.10
2022-11-30T14:43:28.121Z,15.20
2022-11-30T14:46:04.395Z,15.70
2022-11-30T14:48:34.039Z,14.43
2022-11-30T14:51:03.760Z,15.27
2022-11-30T14:53:37.027Z,14.90
2022-11-30T14:56:08.200Z,14.83
2022-11-30T14:58:41.753Z,15.30
2022-11-30T15:01:17.316Z,14.57
2022-11-30T15:03:45.996Z,15.43
2022-11-30T15:06:15.742Z,14.53
2022-11-30T15:08:47.143Z,14.70
2022-11-30T15:11:16.211Z,15.07
2022-11-30T15:13:48.852Z,15.07
2022-11-30T15:16:19.651Z,15.50
2022-11-30T15:18:47.656Z,14.40
2022-11-30T15:21:19.111Z,14.77
2022-11-30T15:23:51.162Z,14.70
2022-11-30T15:26:21.635Z,15.23
2022-11-30T15:28:54.719Z,15.63
2022-11-30T15:31:23.024Z,14.73
2022-11-30T15:33:50.953Z,15.13
2022-11-30T15:36:32.486Z,15.93
2022-11-30T15:39:02.177Z,15.60
2022-11-30T15:41:30.779Z,16.67
2022-11-30T15:44:00.296Z,15.07
2022-11-30T15:46:33.500Z,15.40
2022-11-30T15:49:18.538Z,15.40
2022-11-30T15:51:49.291Z,15.00
2022-11-30T15:54:18.983Z,15.27
2022-11-30T15:56:57.268Z,15.03
2022-11-30T15:59:29.041Z,16.23
2022-11-30T16:02:05.265Z,15.77
2022-11-30T16:05:13.917Z,15.47
2022-11-30T16:07:49.867Z,15.27
2022-11-30T16:10:20.277Z,15.80
2022-11-30T16:12:48.251Z,15.07
2022-11-30T16:15:20.198Z,16.00
2022-11-30T16:17:48.243Z,16.17
2022-11-30T16:20:17.169Z,15.43
2022-11-30T16:22:45.576Z,16.00
2022-11-30T16:25:15.118Z,15.30
2022-11-30T16:27:43.352Z,15.50
2022-11-30T16:30:15.001Z,16.13
2022-11-30T16:32:44.454Z,15.07
2022-11-30T16:35:21.960Z,15.40
2022-11-30T16:37:50.010Z,15.60
2022-11-30T16:40:18.051Z,15.10
2022-11-30T16:42:46.257Z,15.07
2022-11-30T16:45:15.836Z,16.13
2022-11-30T16:47:45.892Z,15.10
2022-11-30T16:50:13.902Z,15.20
2022-11-30T16:52:42.618Z,17.00
2022-11-30T16:55:15.811Z,16.57
2022-11-30T16:57:44.233Z,15.97
2022-11-30T17:00:13.679Z,16.10
2022-11-30T17:02:44.840Z,15.60
2022-11-30T17:05:14.439Z,15.53
2022-11-30T17:07:42.849Z,15.60
2022-11-30T17:10:11.590Z,15.43
2022-11-30T17:12:40.612Z,17.20
2022-11-30T17:15:11.385Z,16.70
2022-11-30T17:17:39.720Z,16.30
2022-11-30T17:20:09.148Z,16.73
2022-11-30T17:22:40.374Z,15.67
2022-11-30T17:25:09.936Z,16.90
2022-11-30T17:27:38.139Z,17.60
2022-11-30T17:30:07.468Z,16.73
2022-11-30T17:32:35.715Z,17.33
2022-11-30T17:35:03.738Z,16.50
2022-11-30T17:37:32.157Z,17.10
2022-11-30T17:40:01.567Z,17.00
2022-11-30T17:42:30.080Z,16.97
2022-11-30T17:44:57.959Z,17.70
2022-11-30T17:47:26.380Z,18.13
2022-11-30T17:49:54.278Z,17.13
2022-11-30T17:52:22.544Z,17.00
2022-11-30T17:54:50.769Z,17.80
2022-11-30T17:57:20.734Z,16.87
2022-11-30T17:59:48.699Z,18.40
2022-11-30T18:02:16.765Z,17.20
2022-11-30T18:04:45.496Z,17.80
2022-11-30T18:07:13.692Z,18.40
2022-11-30T18:09:43.041Z,19.00
2022-11-30T18:12:12.658Z,18.90
2022-11-30T18:14:42.079Z,18.70
2022-11-30T18:17:10.000Z,18.87
2022-11-30T18:19:38.601Z,19.47
2022-11-30T18:22:06.617Z,19.63
2022-11-30T18:24:35.057Z,19.87
2022-11-30T18:27:02.992Z,19.73
2022-11-30T18:29:31.427Z,20.90
2022-11-30T18:32:00.752Z,20.67
2022-11-30T18:34:28.796Z,21.97
2022-11-30T18:36:56.680Z,21.37
2022-11-30T18:39:25.237Z,20.43
2022-11-30T18:41:53.223Z,21.90
2022-11-30T18:44:21.919Z,21.70
2022-11-30T18:46:50.157Z,21.80
2022-11-30T18:49:21.610Z,21.20
2022-11-30T18:51:49.582Z,22.83
2022-11-30T18:54:19.540Z,21.30
2022-11-30T18:56:50.657Z,21.17
2022-11-30T18:59:18.731Z,22.90
2022-11-30T19:01:47.186Z,23.70
2022-11-30T19:04:15.153Z,24.60
2022-11-30T19:06:44.782Z,22.57
2022-11-30T19:09:14.921Z,22.90
2022-11-30T19:11:43.567Z,24.30
2022-11-30T19:14:12.993Z,23.40
2022-11-30T19:16:41.748Z,23.03
2022-11-30T19:19:12.181Z,25.00
2022-11-30T19:21:40.690Z,23.40
2022-11-30T19:24:10.571Z,24.60
2022-11-30T19:26:40.705Z,23.77
2022-11-30T19:29:08.673Z,24.43
2022-11-30T19:31:36.990Z,23.83
2022-11-30T19:34:10.811Z,25.60
2022-11-30T19:36:41.271Z,23.40
2022-11-30T19:39:11.124Z,23.57
2022-11-30T19:41:40.652Z,23.17
2022-11-30T19:44:10.503Z,24.10
2022-11-30T19:46:38.587Z,23.00
2022-11-30T19:49:08.613Z,22.30
2022-11-30T19:51:36.699Z,21.80
2022-11-30T19:54:05.297Z,22.20
2022-11-30T19:56:35.909Z,23.70
2022-11-30T19:59:05.935Z,23.10
2022-11-30T20:01:34.337Z,21.93
2022-11-30T20:04:03.025Z,22.47
2022-11-30T20:06:31.904Z,22.70
2022-11-30T20:09:00.196Z,25.23
2022-11-30T20:11:28.454Z,21.27
2022-11-30T20:13:58.540Z,23.77
2022-11-30T20:16:27.220Z,23.07
2022-11-30T20:18:56.096Z,23.80
2022-11-30T20:21:25.281Z,23.27
2022-11-30T20:23:53.359Z,24.93
2022-11-30T20:26:22.822Z,24.37
2022-11-30T20:28:51.351Z,24.63
2022-11-30T20:31:22.652Z,23.80
2022-11-30T20:33:50.857Z,24.07
2022-11-30T20:36:19.402Z,26.00
2022-11-30T20:38:47.326Z,24.70
2022-11-30T20:41:16.468Z,24.53
2022-11-30T20:43:44.492Z,24.00
2022-11-30T20:46:17.005Z,25.17
2022-11-30T20:48:46.342Z,24.17
2022-11-30T20:51:30.211Z,24.10
2022-11-30T20:53:58.875Z,24.37
2022-11-30T20:56:27.135Z,25.00
2022-11-30T20:58:55.097Z,25.30
2022-11-30T21:01:23.771Z,24.27
2022-11-30T21:03:53.221Z,24.63
2022-11-30T21:06:21.248Z,23.17
2022-11-30T21:08:49.116Z,23.53
2022-11-30T21:11:18.428Z,24.57
2022-11-30T21:13:47.104Z,25.00
2022-11-30T21:16:16.337Z,23.67
2022-11-30T21:18:45.524Z,24.27
2022-11-30T21:21:15.611Z,25.57
2022-11-30T21:23:43.632Z,24.70
2022-11-30T21:26:15.954Z,23.47
2022-11-30T21:28:43.883Z,23.47
2022-11-30T21:31:11.782Z,24.93
2022-11-30T21:33:39.843Z,25.23
2022-11-30T21:36:08.935Z,23.87
2022-11-30T21:38:38.790Z,23.47
2022-11-30T21:41:06.847Z,23.43
2022-11-30T21:43:35.935Z,24.80
2022-11-30T21:46:05.305Z,24.07
2022-11-30T21:48:34.505Z,23.60
2022-11-30T21:51:03.480Z,23.37
2022-11-30T21:53:31.665Z,23.63
2022-11-30T21:56:05.268Z,23.37
2022-11-30T21:58:33.565Z,24.07
2022-11-30T22:01:03.483Z,23.67
2022-11-30T22:03:31.557Z,23.53
2022-11-30T22:06:00.824Z,23.00
2022-11-30T22:08:28.753Z,22.03
2022-11-30T22:10:59.224Z,22.67
2022-11-30T22:13:28.736Z,22.27
2022-11-30T22:16:00.916Z,22.70
2022-11-30T22:18:28.994Z,23.47
2022-11-30T22:21:03.748Z,22.80
2022-11-30T22:23:32.131Z,22.40
2022-11-30T22:26:11.473Z,21.70
2022-11-30T22:28:41.093Z,22.40
2022-11-30T22:31:10.446Z,22.50
2022-11-30T22:33:38.950Z,22.57
2022-11-30T22:36:07.551Z,23.93
2022-11-30T22:38:35.422Z,21.53
2022-11-30T22:41:07.235Z,22.47
2022-11-30T22:43:35.238Z,22.53
2022-11-30T22:46:06.213Z,23.00
2022-11-30T22:48:34.249Z,22.33
2022-11-30T22:51:06.382Z,23.03
2022-11-30T22:53:35.069Z,23.03
2022-11-30T22:56:04.660Z,23.30
2022-11-30T22:58:32.953Z,22.93
2022-11-30T23:01:10.896Z,22.27
2022-11-30T23:03:38.927Z,22.00
2022-11-30T23:06:06.985Z,22.13
2022-11-30T23:08:35.223Z,22.43
2022-11-30T23:11:04.537Z,22.13
2022-11-30T23:13:32.481Z,22.30
2022-11-30T23:16:01.084Z,21.47
2022-11-30T23:18:31.074Z,22.60
2022-11-30T23:21:05.040Z,21.70
2022-11-30T23:23:33.107Z,22.87
2022-11-30T23:26:09.862Z,22.57
2022-11-30T23:28:41.021Z,20.23
2022-11-30T23:31:10.123Z,22.97
2022-11-30T23:33:59.556Z,21.20
2022-11-30T23:36:27.895Z,22.20
2022-11-30T23:38:57.548Z,21.77
2022-11-30T23:41:26.091Z,21.87
2022-11-30T23:43:54.193Z,21.80
2022-11-30T23:46:25.331Z,20.77
2022-11-30T23:48:53.510Z,21.43
2022-11-30T23:51:23.056Z,21.77
2022-11-30T23:53:51.164Z,20.40
2022-11-30T23:56:20.089Z,21.63
2022-11-30T23:58:48.070Z,19.83
